sensor_id;sensor_type;location;lat;lon;timestamp;pressure;altitude;pressure_sealevel;temperature
68027;BMP180;54819;48.030;14.710;2023-08-21T00:01:37;98100.20;;;23.00
68027;BMP180;54819;48.030;14.710;2023-08-21T00:04:04;98101.20;;;23.00
68027;BMP180;54819;48.030;14.710;2023-08-21T00:06:31;98094.80;;;23.00
68027;BMP180;54819;48.030;14.710;2023-08-21T00:08:58;98098.20;;;23.00
68027;BMP180;54819;48.030;14.710;2023-08-21T00:11:24;98092.20;;;23.00
68027;BMP180;54819;48.030;14.710;2023-08-21T00:13:51;98093.80;;;22.90
68027;BMP180;54819;48.030;14.710;2023-08-21T00:16:17;98091.40;;;22.90
68027;BMP180;54819;48.030;14.710;2023-08-21T00:18:44;98083.20;;;22.90
68027;BMP180;54819;48.030;14.710;2023-08-21T00:21:11;98083.80;;;22.86
68027;BMP180;54819;48.030;14.710;2023-08-21T00:23:38;98078.80;;;22.80
68027;BMP180;54819;48.030;14.710;2023-08-21T00:26:05;98079.60;;;22.80
68027;BMP180;54819;48.030;14.710;2023-08-21T00:28:31;98078.80;;;22.80
68027;BMP180;54819;48.030;14.710;2023-08-21T00:31:04;98078.20;;;22.80
68027;BMP180;54819;48.030;14.710;2023-08-21T00:33:32;98082.60;;;22.78
68027;BMP180;54819;48.030;14.710;2023-08-21T00:35:58;98075.60;;;22.70
68027;BMP180;54819;48.030;14.710;2023-08-21T00:38:25;98078.40;;;22.70
68027;BMP180;54819;48.030;14.710;2023-08-21T00:40:53;98078.20;;;22.70
68027;BMP180;54819;48.030;14.710;2023-08-21T00:43:20;98076.60;;;22.70
68027;BMP180;54819;48.030;14.710;2023-08-21T00:45:49;98077.80;;;22.66
68027;BMP180;54819;48.030;14.710;2023-08-21T00:48:17;98075.00;;;22.60
68027;BMP180;54819;48.030;14.710;2023-08-21T00:50:45;98079.80;;;22.60
68027;BMP180;54819;48.030;14.710;2023-08-21T00:53:12;98075.00;;;22.60
68027;BMP180;54819;48.030;14.710;2023-08-21T00:55:40;98068.00;;;22.60
68027;BMP180;54819;48.030;14.710;2023-08-21T00:58:09;98070.40;;;22.60
68027;BMP180;54819;48.030;14.710;2023-08-21T01:00:37;98075.80;;;22.60
68027;BMP180;54819;48.030;14.710;2023-08-21T01:03:05;98077.80;;;22.52
68027;BMP180;54819;48.030;14.710;2023-08-21T01:05:32;98081.40;;;22.50
68027;BMP180;54819;48.030;14.710;2023-08-21T01:08:05;98080.60;;;22.50
68027;BMP180;54819;48.030;14.710;2023-08-21T01:10:50;98078.00;;;22.50
68027;BMP180;54819;48.030;14.710;2023-08-21T01:16:10;98076.60;;;22.50
68027;BMP180;54819;48.030;14.710;2023-08-21T01:18:38;98083.00;;;22.52
68027;BMP180;54819;48.030;14.710;2023-08-21T01:21:06;98080.00;;;22.50
68027;BMP180;54819;48.030;14.710;2023-08-21T01:23:34;98087.80;;;22.50
68027;BMP180;54819;48.030;14.710;2023-08-21T01:26:02;98089.80;;;22.50
68027;BMP180;54819;48.030;14.710;2023-08-21T01:28:31;98090.40;;;22.50
68027;BMP180;54819;48.030;14.710;2023-08-21T01:33:33;98092.80;;;22.40
68027;BMP180;54819;48.030;14.710;2023-08-21T01:36:03;98088.60;;;22.30
68027;BMP180;54819;48.030;14.710;2023-08-21T01:38:33;98089.80;;;22.30
68027;BMP180;54819;48.030;14.710;2023-08-21T01:41:02;98090.00;;;22.22
68027;BMP180;54819;48.030;14.710;2023-08-21T01:43:29;98093.20;;;22.20
68027;BMP180;54819;48.030;14.710;2023-08-21T01:45:56;98095.40;;;22.20
68027;BMP180;54819;48.030;14.710;2023-08-21T01:48:23;98094.20;;;22.10
68027;BMP180;54819;48.030;14.710;2023-08-21T01:50:50;98090.60;;;22.10
68027;BMP180;54819;48.030;14.710;2023-08-21T01:53:17;98092.60;;;22.10
68027;BMP180;54819;48.030;14.710;2023-08-21T01:55:43;98087.60;;;22.00
68027;BMP180;54819;48.030;14.710;2023-08-21T01:58:10;98090.80;;;22.00
68027;BMP180;54819;48.030;14.710;2023-08-21T02:00:37;98092.60;;;22.00
68027;BMP180;54819;48.030;14.710;2023-08-21T02:03:04;98093.00;;;21.90
68027;BMP180;54819;48.030;14.710;2023-08-21T02:05:37;98093.20;;;21.90
68027;BMP180;54819;48.030;14.710;2023-08-21T02:08:04;98096.80;;;21.90
68027;BMP180;54819;48.030;14.710;2023-08-21T02:10:34;98091.60;;;21.80
68027;BMP180;54819;48.030;14.710;2023-08-21T02:13:01;98090.40;;;21.80
68027;BMP180;54819;48.030;14.710;2023-08-21T02:15:27;98090.20;;;21.80
68027;BMP180;54819;48.030;14.710;2023-08-21T02:17:54;98098.60;;;21.70
68027;BMP180;54819;48.030;14.710;2023-08-21T02:20:21;98098.60;;;21.70
68027;BMP180;54819;48.030;14.710;2023-08-21T02:22:47;98097.20;;;21.60
68027;BMP180;54819;48.030;14.710;2023-08-21T02:25:14;98096.20;;;21.50
68027;BMP180;54819;48.030;14.710;2023-08-21T02:27:41;98096.60;;;21.48
68027;BMP180;54819;48.030;14.710;2023-08-21T02:30:08;98098.80;;;21.40
68027;BMP180;54819;48.030;14.710;2023-08-21T02:32:34;98100.80;;;21.30
68027;BMP180;54819;48.030;14.710;2023-08-21T02:35:02;98096.20;;;21.20
68027;BMP180;54819;48.030;14.710;2023-08-21T02:37:29;98094.40;;;21.20
68027;BMP180;54819;48.030;14.710;2023-08-21T02:39:55;98099.60;;;21.10
68027;BMP180;54819;48.030;14.710;2023-08-21T02:42:22;98094.80;;;21.06
68027;BMP180;54819;48.030;14.710;2023-08-21T02:44:48;98097.60;;;21.00
68027;BMP180;54819;48.030;14.710;2023-08-21T02:47:15;98098.20;;;20.94
68027;BMP180;54819;48.030;14.710;2023-08-21T02:49:42;98098.60;;;20.90
68027;BMP180;54819;48.030;14.710;2023-08-21T02:52:08;98095.20;;;20.90
68027;BMP180;54819;48.030;14.710;2023-08-21T02:54:35;98092.00;;;20.80
68027;BMP180;54819;48.030;14.710;2023-08-21T02:57:01;98092.00;;;20.80
68027;BMP180;54819;48.030;14.710;2023-08-21T02:59:28;98092.60;;;20.80
68027;BMP180;54819;48.030;14.710;2023-08-21T03:01:54;98094.00;;;20.80
68027;BMP180;54819;48.030;14.710;2023-08-21T03:04:21;98089.20;;;20.78
68027;BMP180;54819;48.030;14.710;2023-08-21T03:06:49;98088.20;;;20.70
68027;BMP180;54819;48.030;14.710;2023-08-21T03:09:16;98084.60;;;20.70
68027;BMP180;54819;48.030;14.710;2023-08-21T03:11:43;98086.60;;;20.70
68027;BMP180;54819;48.030;14.710;2023-08-21T03:14:09;98081.40;;;20.70
68027;BMP180;54819;48.030;14.710;2023-08-21T03:16:36;98075.00;;;20.72
68027;BMP180;54819;48.030;14.710;2023-08-21T03:19:02;98066.60;;;20.74
68027;BMP180;54819;48.030;14.710;2023-08-21T03:21:29;98066.00;;;20.80
68027;BMP180;54819;48.030;14.710;2023-08-21T03:23:58;98072.80;;;20.80
68027;BMP180;54819;48.030;14.710;2023-08-21T03:26:30;98066.40;;;20.80
68027;BMP180;54819;48.030;14.710;2023-08-21T03:28:56;98067.60;;;20.84
68027;BMP180;54819;48.030;14.710;2023-08-21T03:31:23;98068.20;;;20.94
68027;BMP180;54819;48.030;14.710;2023-08-21T03:33:50;98070.40;;;21.00
68027;BMP180;54819;48.030;14.710;2023-08-21T03:36:18;98069.60;;;21.08
68027;BMP180;54819;48.030;14.710;2023-08-21T03:38:46;98071.40;;;21.10
68027;BMP180;54819;48.030;14.710;2023-08-21T03:41:13;98073.40;;;21.10
68027;BMP180;54819;48.030;14.710;2023-08-21T03:43:40;98076.20;;;21.10
68027;BMP180;54819;48.030;14.710;2023-08-21T03:46:06;98077.00;;;21.10
68027;BMP180;54819;48.030;14.710;2023-08-21T03:48:33;98074.60;;;21.10
68027;BMP180;54819;48.030;14.710;2023-08-21T03:51:00;98074.00;;;21.20
68027;BMP180;54819;48.030;14.710;2023-08-21T03:53:27;98077.60;;;21.12
68027;BMP180;54819;48.030;14.710;2023-08-21T03:55:54;98079.20;;;21.10
68027;BMP180;54819;48.030;14.710;2023-08-21T03:58:20;98079.00;;;21.00
68027;BMP180;54819;48.030;14.710;2023-08-21T04:00:47;98085.20;;;20.90
68027;BMP180;54819;48.030;14.710;2023-08-21T04:03:14;98086.20;;;20.80
68027;BMP180;54819;48.030;14.710;2023-08-21T04:05:40;98086.40;;;20.70
68027;BMP180;54819;48.030;14.710;2023-08-21T04:08:07;98093.60;;;20.60
68027;BMP180;54819;48.030;14.710;2023-08-21T04:10:34;98094.40;;;20.50
68027;BMP180;54819;48.030;14.710;2023-08-21T04:13:00;98098.40;;;20.40
68027;BMP180;54819;48.030;14.710;2023-08-21T04:15:30;98094.20;;;20.30
68027;BMP180;54819;48.030;14.710;2023-08-21T04:17:57;98094.40;;;20.30
68027;BMP180;54819;48.030;14.710;2023-08-21T04:20:23;98095.00;;;20.30
68027;BMP180;54819;48.030;14.710;2023-08-21T04:22:51;98094.20;;;20.38
68027;BMP180;54819;48.030;14.710;2023-08-21T04:25:17;98087.20;;;20.50
68027;BMP180;54819;48.030;14.710;2023-08-21T04:27:44;98084.80;;;20.76
68027;BMP180;54819;48.030;14.710;2023-08-21T04:30:11;98087.80;;;20.90
68027;BMP180;54819;48.030;14.710;2023-08-21T04:32:38;98085.00;;;21.20
68027;BMP180;54819;48.030;14.710;2023-08-21T04:35:06;98089.60;;;21.66
68027;BMP180;54819;48.030;14.710;2023-08-21T04:37:37;98090.40;;;22.10
68027;BMP180;54819;48.030;14.710;2023-08-21T04:40:05;98094.60;;;22.58
68027;BMP180;54819;48.030;14.710;2023-08-21T04:42:31;98093.80;;;23.02
68027;BMP180;54819;48.030;14.710;2023-08-21T04:44:58;98095.40;;;23.50
68027;BMP180;54819;48.030;14.710;2023-08-21T04:47:26;98097.80;;;23.96
68027;BMP180;54819;48.030;14.710;2023-08-21T04:49:56;98097.40;;;24.46
68027;BMP180;54819;48.030;14.710;2023-08-21T04:52:24;98094.40;;;24.94
68027;BMP180;54819;48.030;14.710;2023-08-21T04:54:52;98096.80;;;25.38
68027;BMP180;54819;48.030;14.710;2023-08-21T04:57:19;98093.40;;;25.78
68027;BMP180;54819;48.030;14.710;2023-08-21T04:59:47;98107.20;;;25.80
68027;BMP180;54819;48.030;14.710;2023-08-21T05:02:14;98104.40;;;25.30
68027;BMP180;54819;48.030;14.710;2023-08-21T05:04:41;98105.00;;;24.82
68027;BMP180;54819;48.030;14.710;2023-08-21T05:07:07;98104.20;;;24.50
68027;BMP180;54819;48.030;14.710;2023-08-21T05:09:34;98106.40;;;24.30
68027;BMP180;54819;48.030;14.710;2023-08-21T05:12:01;98106.00;;;24.20
68027;BMP180;54819;48.030;14.710;2023-08-21T05:14:28;98109.40;;;24.02
68027;BMP180;54819;48.030;14.710;2023-08-21T05:16:55;98101.80;;;23.90
68027;BMP180;54819;48.030;14.710;2023-08-21T05:19:21;98101.00;;;23.70
68027;BMP180;54819;48.030;14.710;2023-08-21T05:21:48;98099.80;;;23.60
68027;BMP180;54819;48.030;14.710;2023-08-21T05:24:15;98098.00;;;23.42
68027;BMP180;54819;48.030;14.710;2023-08-21T05:26:46;98107.60;;;23.30
68027;BMP180;54819;48.030;14.710;2023-08-21T05:29:13;98107.40;;;23.20
68027;BMP180;54819;48.030;14.710;2023-08-21T05:31:39;98104.80;;;23.10
68027;BMP180;54819;48.030;14.710;2023-08-21T05:34:06;98112.20;;;22.90
68027;BMP180;54819;48.030;14.710;2023-08-21T05:36:33;98106.00;;;22.80
68027;BMP180;54819;48.030;14.710;2023-08-21T05:39:02;98106.80;;;22.72
68027;BMP180;54819;48.030;14.710;2023-08-21T05:41:33;98107.60;;;22.70
68027;BMP180;54819;48.030;14.710;2023-08-21T05:44:00;98107.80;;;22.70
68027;BMP180;54819;48.030;14.710;2023-08-21T05:46:27;98105.60;;;22.70
68027;BMP180;54819;48.030;14.710;2023-08-21T05:48:54;98110.20;;;22.70
68027;BMP180;54819;48.030;14.710;2023-08-21T05:51:20;98112.00;;;22.62
68027;BMP180;54819;48.030;14.710;2023-08-21T05:53:48;98112.00;;;22.60
68027;BMP180;54819;48.030;14.710;2023-08-21T05:56:15;98115.80;;;22.60
68027;BMP180;54819;48.030;14.710;2023-08-21T05:58:43;98113.00;;;22.60
68027;BMP180;54819;48.030;14.710;2023-08-21T06:01:11;98115.00;;;22.60
68027;BMP180;54819;48.030;14.710;2023-08-21T06:03:37;98119.00;;;22.60
68027;BMP180;54819;48.030;14.710;2023-08-21T06:06:10;98118.20;;;22.60
68027;BMP180;54819;48.030;14.710;2023-08-21T06:08:37;98119.40;;;22.60
68027;BMP180;54819;48.030;14.710;2023-08-21T06:11:04;98116.20;;;22.60
68027;BMP180;54819;48.030;14.710;2023-08-21T06:13:31;98116.20;;;22.70
68027;BMP180;54819;48.030;14.710;2023-08-21T06:15:58;98118.00;;;22.70
68027;BMP180;54819;48.030;14.710;2023-08-21T06:18:26;98117.20;;;22.70
68027;BMP180;54819;48.030;14.710;2023-08-21T06:20:54;98115.80;;;22.80
68027;BMP180;54819;48.030;14.710;2023-08-21T06:23:22;98115.60;;;22.80
68027;BMP180;54819;48.030;14.710;2023-08-21T06:25:49;98114.80;;;22.82
68027;BMP180;54819;48.030;14.710;2023-08-21T06:28:17;98112.80;;;22.90
68027;BMP180;54819;48.030;14.710;2023-08-21T06:30:44;98110.00;;;22.96
68027;BMP180;54819;48.030;14.710;2023-08-21T06:33:10;98105.40;;;23.00
68027;BMP180;54819;48.030;14.710;2023-08-21T06:35:37;98103.80;;;23.10
68027;BMP180;54819;48.030;14.710;2023-08-21T06:38:05;98108.00;;;23.16
68027;BMP180;54819;48.030;14.710;2023-08-21T06:40:32;98112.20;;;23.20
68027;BMP180;54819;48.030;14.710;2023-08-21T06:42:59;98114.60;;;23.30
68027;BMP180;54819;48.030;14.710;2023-08-21T06:45:28;98119.40;;;23.40
68027;BMP180;54819;48.030;14.710;2023-08-21T06:47:57;98120.80;;;23.50
68027;BMP180;54819;48.030;14.710;2023-08-21T06:50:24;98122.60;;;23.54
68027;BMP180;54819;48.030;14.710;2023-08-21T06:52:51;98121.40;;;23.60
68027;BMP180;54819;48.030;14.710;2023-08-21T06:55:17;98121.60;;;23.70
68027;BMP180;54819;48.030;14.710;2023-08-21T06:57:44;98121.40;;;23.70
68027;BMP180;54819;48.030;14.710;2023-08-21T07:00:11;98123.20;;;23.80
68027;BMP180;54819;48.030;14.710;2023-08-21T07:02:38;98121.40;;;23.90
68027;BMP180;54819;48.030;14.710;2023-08-21T07:05:05;98122.60;;;24.00
68027;BMP180;54819;48.030;14.710;2023-08-21T07:07:34;98122.00;;;24.10
68027;BMP180;54819;48.030;14.710;2023-08-21T07:10:00;98120.20;;;24.10
68027;BMP180;54819;48.030;14.710;2023-08-21T07:12:27;98119.00;;;24.20
68027;BMP180;54819;48.030;14.710;2023-08-21T07:14:54;98117.40;;;24.30
68027;BMP180;54819;48.030;14.710;2023-08-21T07:17:21;98113.20;;;24.40
68027;BMP180;54819;48.030;14.710;2023-08-21T07:19:47;98114.20;;;24.50
68027;BMP180;54819;48.030;14.710;2023-08-21T07:22:15;98118.20;;;24.60
68027;BMP180;54819;48.030;14.710;2023-08-21T07:24:42;98116.60;;;24.64
68027;BMP180;54819;48.030;14.710;2023-08-21T07:27:08;98114.00;;;24.70
68027;BMP180;54819;48.030;14.710;2023-08-21T07:29:35;98117.60;;;24.80
68027;BMP180;54819;48.030;14.710;2023-08-21T07:32:02;98114.20;;;24.90
68027;BMP180;54819;48.030;14.710;2023-08-21T07:34:28;98116.40;;;25.00
68027;BMP180;54819;48.030;14.710;2023-08-21T07:36:55;98114.60;;;25.10
68027;BMP180;54819;48.030;14.710;2023-08-21T07:39:22;98108.00;;;25.20
68027;BMP180;54819;48.030;14.710;2023-08-21T07:41:49;98106.60;;;25.28
68027;BMP180;54819;48.030;14.710;2023-08-21T07:44:15;98107.80;;;25.40
68027;BMP180;54819;48.030;14.710;2023-08-21T07:46:42;98103.20;;;25.50
68027;BMP180;54819;48.030;14.710;2023-08-21T07:49:09;98103.20;;;25.60
68027;BMP180;54819;48.030;14.710;2023-08-21T07:51:36;98103.60;;;25.70
68027;BMP180;54819;48.030;14.710;2023-08-21T07:54:02;98099.20;;;25.80
68027;BMP180;54819;48.030;14.710;2023-08-21T07:56:29;98096.40;;;25.90
68027;BMP180;54819;48.030;14.710;2023-08-21T07:58:56;98093.80;;;26.00
68027;BMP180;54819;48.030;14.710;2023-08-21T08:01:22;98090.20;;;26.10
68027;BMP180;54819;48.030;14.710;2023-08-21T08:03:49;98095.60;;;26.10
68027;BMP180;54819;48.030;14.710;2023-08-21T08:06:16;98096.40;;;26.22
68027;BMP180;54819;48.030;14.710;2023-08-21T08:08:43;98096.60;;;26.30
68027;BMP180;54819;48.030;14.710;2023-08-21T08:11:10;98092.80;;;26.40
68027;BMP180;54819;48.030;14.710;2023-08-21T08:13:36;98093.00;;;26.50
68027;BMP180;54819;48.030;14.710;2023-08-21T08:16:03;98091.80;;;26.60
68027;BMP180;54819;48.030;14.710;2023-08-21T08:18:30;98096.00;;;26.64
68027;BMP180;54819;48.030;14.710;2023-08-21T08:20:56;98098.60;;;26.70
68027;BMP180;54819;48.030;14.710;2023-08-21T08:23:23;98094.40;;;26.80
68027;BMP180;54819;48.030;14.710;2023-08-21T08:25:50;98096.80;;;26.90
68027;BMP180;54819;48.030;14.710;2023-08-21T08:28:17;98092.80;;;27.00
68027;BMP180;54819;48.030;14.710;2023-08-21T08:30:45;98091.60;;;27.02
68027;BMP180;54819;48.030;14.710;2023-08-21T08:33:11;98093.00;;;27.10
68027;BMP180;54819;48.030;14.710;2023-08-21T08:35:38;98100.40;;;27.18
68027;BMP180;54819;48.030;14.710;2023-08-21T08:38:06;98103.00;;;27.20
68027;BMP180;54819;48.030;14.710;2023-08-21T08:40:34;98101.40;;;27.30
68027;BMP180;54819;48.030;14.710;2023-08-21T08:43:03;98104.40;;;27.36
68027;BMP180;54819;48.030;14.710;2023-08-21T08:45:32;98106.40;;;27.40
68027;BMP180;54819;48.030;14.710;2023-08-21T08:48:00;98103.20;;;27.40
68027;BMP180;54819;48.030;14.710;2023-08-21T08:50:31;98105.00;;;27.50
68027;BMP180;54819;48.030;14.710;2023-08-21T08:52:59;98104.00;;;27.60
68027;BMP180;54819;48.030;14.710;2023-08-21T08:55:41;98099.60;;;27.66
68027;BMP180;54819;48.030;14.710;2023-08-21T08:58:07;98106.60;;;27.70
68027;BMP180;54819;48.030;14.710;2023-08-21T09:00:34;98101.60;;;27.76
68027;BMP180;54819;48.030;14.710;2023-08-21T09:03:01;98105.20;;;27.80
68027;BMP180;54819;48.030;14.710;2023-08-21T09:05:28;98099.40;;;27.90
68027;BMP180;54819;48.030;14.710;2023-08-21T09:08:11;98098.80;;;28.00
68027;BMP180;54819;48.030;14.710;2023-08-21T09:10:39;98097.20;;;28.02
68027;BMP180;54819;48.030;14.710;2023-08-21T09:13:15;98096.80;;;28.10
68027;BMP180;54819;48.030;14.710;2023-08-21T09:15:45;98095.80;;;28.20
68027;BMP180;54819;48.030;14.710;2023-08-21T09:18:14;98097.80;;;28.20
68027;BMP180;54819;48.030;14.710;2023-08-21T09:20:42;98101.80;;;28.30
68027;BMP180;54819;48.030;14.710;2023-08-21T09:23:13;98102.00;;;28.40
68027;BMP180;54819;48.030;14.710;2023-08-21T09:25:40;98094.40;;;28.42
68027;BMP180;54819;48.030;14.710;2023-08-21T09:28:08;98089.80;;;28.50
68027;BMP180;54819;48.030;14.710;2023-08-21T09:33:19;98085.60;;;28.60
68027;BMP180;54819;48.030;14.710;2023-08-21T09:35:48;98085.80;;;28.70
68027;BMP180;54819;48.030;14.710;2023-08-21T09:38:15;98084.40;;;28.70
68027;BMP180;54819;48.030;14.710;2023-08-21T09:40:44;98087.20;;;28.80
68027;BMP180;54819;48.030;14.710;2023-08-21T09:43:16;98082.80;;;28.88
68027;BMP180;54819;48.030;14.710;2023-08-21T09:45:46;98081.00;;;28.90
68027;BMP180;54819;48.030;14.710;2023-08-21T09:48:14;98083.80;;;29.00
68027;BMP180;54819;48.030;14.710;2023-08-21T09:50:41;98082.60;;;29.00
68027;BMP180;54819;48.030;14.710;2023-08-21T09:53:09;98078.80;;;29.10
68027;BMP180;54819;48.030;14.710;2023-08-21T09:55:38;98079.20;;;29.20
68027;BMP180;54819;48.030;14.710;2023-08-21T09:58:06;98075.40;;;29.20
68027;BMP180;54819;48.030;14.710;2023-08-21T10:00:36;98073.40;;;29.30
68027;BMP180;54819;48.030;14.710;2023-08-21T10:03:06;98079.40;;;29.40
68027;BMP180;54819;48.030;14.710;2023-08-21T10:05:36;98077.40;;;29.50
68027;BMP180;54819;48.030;14.710;2023-08-21T10:08:05;98078.80;;;29.50
68027;BMP180;54819;48.030;14.710;2023-08-21T10:10:35;98076.00;;;29.60
68027;BMP180;54819;48.030;14.710;2023-08-21T10:13:03;98073.40;;;29.70
68027;BMP180;54819;48.030;14.710;2023-08-21T10:15:31;98073.20;;;29.80
68027;BMP180;54819;48.030;14.710;2023-08-21T10:18:19;98073.20;;;29.80
68027;BMP180;54819;48.030;14.710;2023-08-21T10:20:47;98077.00;;;29.88
68027;BMP180;54819;48.030;14.710;2023-08-21T10:23:28;98076.40;;;29.90
68027;BMP180;54819;48.030;14.710;2023-08-21T10:25:57;98075.40;;;29.90
68027;BMP180;54819;48.030;14.710;2023-08-21T10:33:55;98076.40;;;30.08
68027;BMP180;54819;48.030;14.710;2023-08-21T10:41:41;98075.40;;;30.20
68027;BMP180;54819;48.030;14.710;2023-08-21T10:47:20;98073.20;;;30.30
68027;BMP180;54819;48.030;14.710;2023-08-21T10:49:49;98074.20;;;30.38
68027;BMP180;54819;48.030;14.710;2023-08-21T10:52:24;98074.20;;;30.40
68027;BMP180;54819;48.030;14.710;2023-08-21T10:54:54;98074.60;;;30.46
68027;BMP180;54819;48.030;14.710;2023-08-21T10:57:23;98075.00;;;30.50
68027;BMP180;54819;48.030;14.710;2023-08-21T11:00:05;98070.60;;;30.60
68027;BMP180;54819;48.030;14.710;2023-08-21T11:02:36;98073.20;;;30.60
68027;BMP180;54819;48.030;14.710;2023-08-21T11:05:04;98069.60;;;30.70
68027;BMP180;54819;48.030;14.710;2023-08-21T11:07:36;98072.00;;;30.70
68027;BMP180;54819;48.030;14.710;2023-08-21T11:10:06;98071.00;;;30.80
68027;BMP180;54819;48.030;14.710;2023-08-21T11:12:37;98070.40;;;30.80
68027;BMP180;54819;48.030;14.710;2023-08-21T11:15:04;98069.40;;;30.90
68027;BMP180;54819;48.030;14.710;2023-08-21T11:17:31;98063.00;;;30.90
68027;BMP180;54819;48.030;14.710;2023-08-21T11:20:00;98063.40;;;31.00
68027;BMP180;54819;48.030;14.710;2023-08-21T11:22:28;98063.40;;;31.00
68027;BMP180;54819;48.030;14.710;2023-08-21T11:24:56;98060.40;;;31.08
68027;BMP180;54819;48.030;14.710;2023-08-21T11:27:23;98055.00;;;31.10
68027;BMP180;54819;48.030;14.710;2023-08-21T11:29:51;98053.20;;;31.16
68027;BMP180;54819;48.030;14.710;2023-08-21T11:32:21;98051.00;;;31.20
68027;BMP180;54819;48.030;14.710;2023-08-21T11:34:52;98050.80;;;31.26
68027;BMP180;54819;48.030;14.710;2023-08-21T11:37:21;98051.40;;;31.30
68027;BMP180;54819;48.030;14.710;2023-08-21T11:39:50;98052.20;;;31.30
68027;BMP180;54819;48.030;14.710;2023-08-21T11:42:19;98051.00;;;31.40
68027;BMP180;54819;48.030;14.710;2023-08-21T11:44:51;98049.40;;;31.40
68027;BMP180;54819;48.030;14.710;2023-08-21T11:47:20;98046.20;;;31.50
68027;BMP180;54819;48.030;14.710;2023-08-21T11:49:48;98050.60;;;31.50
68027;BMP180;54819;48.030;14.710;2023-08-21T11:52:20;98048.80;;;31.60
68027;BMP180;54819;48.030;14.710;2023-08-21T11:54:51;98050.40;;;31.60
68027;BMP180;54819;48.030;14.710;2023-08-21T11:57:18;98050.40;;;31.60
68027;BMP180;54819;48.030;14.710;2023-08-21T11:59:55;98052.20;;;31.70
68027;BMP180;54819;48.030;14.710;2023-08-21T12:02:26;98050.40;;;31.70
68027;BMP180;54819;48.030;14.710;2023-08-21T12:07:20;98048.00;;;31.80
68027;BMP180;54819;48.030;14.710;2023-08-21T12:09:47;98046.40;;;31.80
68027;BMP180;54819;48.030;14.710;2023-08-21T12:12:15;98042.40;;;31.80
68027;BMP180;54819;48.030;14.710;2023-08-21T12:14:42;98041.20;;;31.86
68027;BMP180;54819;48.030;14.710;2023-08-21T12:17:09;98038.80;;;31.90
68027;BMP180;54819;48.030;14.710;2023-08-21T12:19:36;98037.00;;;31.90
68027;BMP180;54819;48.030;14.710;2023-08-21T12:22:03;98034.00;;;31.96
68027;BMP180;54819;48.030;14.710;2023-08-21T12:24:30;98032.20;;;32.00
68027;BMP180;54819;48.030;14.710;2023-08-21T12:26:58;98029.20;;;32.10
68027;BMP180;54819;48.030;14.710;2023-08-21T12:29:24;98029.20;;;32.20
68027;BMP180;54819;48.030;14.710;2023-08-21T12:31:51;98028.80;;;32.20
68027;BMP180;54819;48.030;14.710;2023-08-21T12:34:18;98028.20;;;32.30
68027;BMP180;54819;48.030;14.710;2023-08-21T12:36:44;98023.80;;;32.30
68027;BMP180;54819;48.030;14.710;2023-08-21T12:39:11;98023.60;;;32.30
68027;BMP180;54819;48.030;14.710;2023-08-21T12:41:38;98022.00;;;32.40
68027;BMP180;54819;48.030;14.710;2023-08-21T12:44:04;98018.20;;;32.40
68027;BMP180;54819;48.030;14.710;2023-08-21T12:46:36;98014.40;;;32.42
68027;BMP180;54819;48.030;14.710;2023-08-21T12:49:02;98011.80;;;32.50
68027;BMP180;54819;48.030;14.710;2023-08-21T12:51:29;98011.40;;;32.50
68027;BMP180;54819;48.030;14.710;2023-08-21T12:53:56;98003.80;;;32.56
68027;BMP180;54819;48.030;14.710;2023-08-21T12:56:23;98010.60;;;32.60
68027;BMP180;54819;48.030;14.710;2023-08-21T12:58:51;98007.40;;;32.60
68027;BMP180;54819;48.030;14.710;2023-08-21T13:01:17;98007.60;;;32.60
68027;BMP180;54819;48.030;14.710;2023-08-21T13:03:45;98008.80;;;32.70
68027;BMP180;54819;48.030;14.710;2023-08-21T13:06:13;98003.80;;;32.70
68027;BMP180;54819;48.030;14.710;2023-08-21T13:08:41;98003.00;;;32.78
68027;BMP180;54819;48.030;14.710;2023-08-21T13:11:07;98000.00;;;32.80
68027;BMP180;54819;48.030;14.710;2023-08-21T13:13:36;97996.20;;;32.82
68027;BMP180;54819;48.030;14.710;2023-08-21T13:16:02;97995.60;;;32.90
68027;BMP180;54819;48.030;14.710;2023-08-21T13:18:30;97993.80;;;32.90
68027;BMP180;54819;48.030;14.710;2023-08-21T13:20:57;97987.00;;;32.98
68027;BMP180;54819;48.030;14.710;2023-08-21T13:23:24;97990.40;;;33.00
68027;BMP180;54819;48.030;14.710;2023-08-21T13:25:50;97987.80;;;33.00
68027;BMP180;54819;48.030;14.710;2023-08-21T13:28:17;97985.00;;;33.10
68027;BMP180;54819;48.030;14.710;2023-08-21T13:30:44;97981.80;;;33.10
68027;BMP180;54819;48.030;14.710;2023-08-21T13:33:10;97984.80;;;33.10
68027;BMP180;54819;48.030;14.710;2023-08-21T13:35:37;97984.00;;;33.16
68027;BMP180;54819;48.030;14.710;2023-08-21T13:38:04;97974.20;;;33.20
68027;BMP180;54819;48.030;14.710;2023-08-21T13:40:32;97982.80;;;33.20
68027;BMP180;54819;48.030;14.710;2023-08-21T13:42:59;97978.20;;;33.20
68027;BMP180;54819;48.030;14.710;2023-08-21T13:45:28;97973.80;;;33.22
68027;BMP180;54819;48.030;14.710;2023-08-21T13:47:55;97969.20;;;33.26
68027;BMP180;54819;48.030;14.710;2023-08-21T13:50:22;97969.00;;;33.30
68027;BMP180;54819;48.030;14.710;2023-08-21T13:52:48;97963.60;;;33.30
68027;BMP180;54819;48.030;14.710;2023-08-21T13:55:16;97960.00;;;33.30
68027;BMP180;54819;48.030;14.710;2023-08-21T13:57:44;97957.40;;;33.40
68027;BMP180;54819;48.030;14.710;2023-08-21T14:00:11;97959.80;;;33.40
68027;BMP180;54819;48.030;14.710;2023-08-21T14:02:40;97954.80;;;33.40
68027;BMP180;54819;48.030;14.710;2023-08-21T14:05:08;97955.20;;;33.50
68027;BMP180;54819;48.030;14.710;2023-08-21T14:07:37;97955.20;;;33.50
68027;BMP180;54819;48.030;14.710;2023-08-21T14:10:04;97951.40;;;33.50
68027;BMP180;54819;48.030;14.710;2023-08-21T14:12:32;97950.60;;;33.66
68027;BMP180;54819;48.030;14.710;2023-08-21T14:14:59;97948.60;;;33.70
68027;BMP180;54819;48.030;14.710;2023-08-21T14:17:27;97951.20;;;33.72
68027;BMP180;54819;48.030;14.710;2023-08-21T14:19:54;97951.00;;;33.70
68027;BMP180;54819;48.030;14.710;2023-08-21T14:22:21;97947.40;;;33.70
68027;BMP180;54819;48.030;14.710;2023-08-21T14:24:47;97946.40;;;33.70